createdAt,value
2023-04-15T05:01:18.596Z,8.80
2023-04-15T05:06:22.266Z,8.80
2023-04-15T05:11:25.624Z,8.80
2023-04-15T05:16:30.277Z,8.70
2023-04-15T05:21:33.602Z,8.80
2023-04-15T05:26:37.103Z,8.70
2023-04-15T05:31:42.276Z,8.70
2023-04-15T05:36:45.907Z,8.70
2023-04-15T05:41:49.263Z,8.80
2023-04-15T05:46:53.949Z,8.80
2023-04-15T05:51:57.496Z,8.80
2023-04-15T05:57:01.007Z,8.90
2023-04-15T06:02:06.336Z,9.00
2023-04-15T06:07:09.702Z,9.10
2023-04-15T06:12:13.236Z,9.20
2023-04-15T06:17:19.298Z,9.30
2023-04-15T06:22:23.074Z,9.40
2023-04-15T06:27:26.553Z,9.50
2023-04-15T06:32:31.481Z,9.60
2023-04-15T06:37:34.896Z,9.80
2023-04-15T06:42:38.406Z,10.00
2023-04-15T06:47:43.690Z,10.10
2023-04-15T06:52:47.122Z,10.30
2023-04-15T06:57:50.463Z,10.40
2023-04-15T07:02:55.403Z,10.60
2023-04-15T07:08:02.027Z,10.90
2023-04-15T07:13:05.635Z,11.10
2023-04-15T07:18:10.802Z,11.30
2023-04-15T07:23:14.121Z,11.40
2023-04-15T07:28:17.544Z,11.60
2023-04-15T07:33:22.377Z,12.50
2023-04-15T07:38:25.744Z,12.10
2023-04-15T07:43:29.227Z,12.30
2023-04-15T07:48:35.499Z,12.50
2023-04-15T07:53:39.664Z,12.70
2023-04-15T07:58:43.009Z,12.90
2023-04-15T08:03:48.620Z,13.10
2023-04-15T08:08:52.712Z,13.30
2023-04-15T08:13:56.058Z,13.40
2023-04-15T08:19:01.334Z,13.60
2023-04-15T08:24:05.231Z,13.70
2023-04-15T08:29:09.214Z,13.90
2023-04-15T08:34:14.036Z,14.00
2023-04-15T08:39:17.375Z,14.30
2023-04-15T08:44:21.681Z,13.70
2023-04-15T08:49:28.574Z,14.90
2023-04-15T08:54:32.357Z,15.20
2023-04-15T08:59:35.893Z,15.50
2023-04-15T09:04:40.840Z,16.10
2023-04-15T09:09:44.292Z,16.90
2023-04-15T09:14:48.345Z,17.70
2023-04-15T09:20:08.557Z,18.20
2023-04-15T09:25:28.464Z,18.40
2023-04-15T09:30:32.074Z,18.70
2023-04-15T09:35:37.093Z,19.20
2023-04-15T09:40:41.138Z,19.50
2023-04-15T09:45:48.873Z,19.80
2023-04-15T09:50:54.837Z,20.20
2023-04-15T09:56:00.850Z,20.40
2023-04-15T10:01:05.848Z,20.60
2023-04-15T10:06:11.120Z,20.50
2023-04-15T10:11:15.054Z,20.60
2023-04-15T10:16:20.820Z,21.10
2023-04-15T10:21:25.615Z,21.40
2023-04-15T10:26:29.546Z,21.50
2023-04-15T10:31:32.991Z,21.80
2023-04-15T10:36:37.905Z,22.20
2023-04-15T10:41:41.463Z,22.50
2023-04-15T10:46:45.835Z,22.50
2023-04-15T10:51:53.227Z,22.60
2023-04-15T10:57:09.305Z,22.80
2023-04-15T11:02:14.607Z,22.90
2023-04-15T11:07:34.194Z,23.10
2023-04-15T11:12:37.863Z,23.40
2023-04-15T11:17:41.254Z,23.70
2023-04-15T11:22:49.785Z,23.80
2023-04-15T11:27:54.266Z,23.60
2023-04-15T11:32:59.967Z,23.60
2023-04-15T11:38:05.602Z,23.90
2023-04-15T11:43:09.620Z,24.10
2023-04-15T11:48:13.395Z,24.40
2023-04-15T11:53:18.161Z,21.70
2023-04-15T11:58:22.547Z,24.60
2023-04-15T12:03:26.770Z,24.20
2023-04-15T12:08:45.316Z,24.00
2023-04-15T12:13:51.438Z,24.10
2023-04-15T12:18:56.128Z,24.40
2023-04-15T12:24:02.990Z,24.70
2023-04-15T12:29:09.285Z,24.80
2023-04-15T12:34:12.632Z,25.00
2023-04-15T12:39:16.047Z,25.20
2023-04-15T12:44:21.257Z,25.30
2023-04-15T12:49:25.538Z,25.60
2023-04-15T12:54:29.225Z,25.50
2023-04-15T12:59:34.018Z,25.80
2023-04-15T13:04:37.528Z,24.00
2023-04-15T13:09:40.983Z,25.50
2023-04-15T13:14:45.787Z,25.40
2023-04-15T13:19:49.154Z,25.30
2023-04-15T13:24:52.556Z,25.30
2023-04-15T13:29:57.282Z,25.10
2023-04-15T13:35:00.695Z,24.90
2023-04-15T13:40:04.163Z,24.80
2023-04-15T13:45:09.828Z,24.90
2023-04-15T13:50:13.303Z,24.90
2023-04-15T13:55:22.389Z,24.70
2023-04-15T14:00:28.501Z,24.80
2023-04-15T14:05:31.878Z,24.90
2023-04-15T14:10:36.216Z,25.10
2023-04-15T14:15:41.055Z,24.90
2023-04-15T14:20:44.401Z,24.70
2023-04-15T14:25:48.465Z,24.40
2023-04-15T14:30:53.529Z,24.10
2023-04-15T14:35:56.990Z,24.10
2023-04-15T14:41:01.093Z,23.80
2023-04-15T14:46:06.306Z,23.90
2023-04-15T14:51:09.752Z,23.60
2023-04-15T14:56:13.317Z,23.30
2023-04-15T15:01:18.074Z,22.90
2023-04-15T15:06:21.877Z,22.40
2023-04-15T15:11:25.535Z,22.10
2023-04-15T15:16:30.369Z,21.70
2023-04-15T15:21:33.707Z,21.40
2023-04-15T15:26:37.037Z,21.10
2023-04-15T15:31:41.735Z,20.60
2023-04-15T15:36:45.078Z,20.30
2023-04-15T15:41:48.401Z,20.00
2023-04-15T15:46:53.318Z,19.60
2023-04-15T15:51:57.092Z,19.30
2023-04-15T15:57:00.420Z,19.10
2023-04-15T16:02:05.939Z,18.80
2023-04-15T16:07:09.576Z,18.50
2023-04-15T16:12:13.106Z,18.30
2023-04-15T16:17:18.037Z,18.20
2023-04-15T16:22:21.358Z,18.00
2023-04-15T16:27:24.671Z,17.80
2023-04-15T16:32:29.434Z,17.70
2023-04-15T16:37:33.269Z,17.60
2023-04-15T16:42:37.033Z,17.50
2023-04-15T16:47:41.745Z,17.50
2023-04-15T16:52:45.132Z,15.20
2023-04-15T16:58:00.428Z,17.30
2023-04-15T17:03:06.353Z,17.10
2023-04-15T17:08:09.874Z,17.00
2023-04-15T17:13:13.217Z,16.90
2023-04-15T17:18:17.965Z,16.90
2023-04-15T17:23:21.337Z,16.80
2023-04-15T17:28:24.682Z,16.70
2023-04-15T17:34:00.129Z,16.50
2023-04-15T17:38:53.126Z,16.30
2023-04-15T17:43:56.781Z,16.20
2023-04-15T17:49:01.524Z,16.10
2023-04-15T17:54:05.631Z,16.00
2023-04-15T17:59:09.220Z,15.90
2023-04-15T18:04:14.035Z,15.80
2023-04-15T18:09:17.621Z,15.60
2023-04-15T18:14:33.515Z,15.40
2023-04-15T18:19:39.553Z,15.20
2023-04-15T18:24:42.899Z,15.20
2023-04-15T18:29:46.425Z,15.00
2023-04-15T18:34:51.119Z,14.90
2023-04-15T18:39:55.062Z,14.80
2023-04-15T18:44:58.526Z,14.60
2023-04-15T18:50:03.497Z,14.50
2023-04-15T18:55:07.469Z,14.40
2023-04-15T19:00:11.594Z,14.30
2023-04-15T19:05:16.288Z,14.20
2023-04-15T19:10:19.702Z,14.10
2023-04-15T19:15:23.113Z,13.90
2023-04-15T19:20:27.957Z,13.70
2023-04-15T19:25:31.893Z,13.60
2023-04-15T19:30:35.285Z,13.60
2023-04-15T19:35:40.970Z,13.50
2023-04-15T19:40:44.289Z,13.40
2023-04-15T19:45:49.382Z,13.40
2023-04-15T19:50:54.144Z,13.10
2023-04-15T19:55:57.602Z,13.20
2023-04-15T20:01:01.414Z,13.00
2023-04-15T20:06:06.109Z,12.90
2023-04-15T20:11:09.712Z,12.90
2023-04-15T20:16:13.423Z,12.70
2023-04-15T20:21:18.229Z,12.50
2023-04-15T20:26:21.641Z,12.50
2023-04-15T20:31:25.088Z,12.40
2023-04-15T20:36:29.945Z,12.40
2023-04-15T20:41:33.284Z,12.40
2023-04-15T20:46:37.063Z,12.40
2023-04-15T20:51:41.808Z,12.30
2023-04-15T20:56:45.342Z,12.30
2023-04-15T21:01:48.821Z,12.10
2023-04-15T21:06:53.680Z,12.00
2023-04-15T21:12:01.455Z,11.90
2023-04-15T21:17:09.196Z,11.80
2023-04-15T21:22:15.081Z,11.80
2023-04-15T21:27:18.444Z,11.70
2023-04-15T21:32:21.773Z,11.60
2023-04-15T21:37:26.962Z,11.50
2023-04-15T21:42:30.737Z,11.40
2023-04-15T21:47:57.441Z,11.40
2023-04-15T21:52:58.842Z,11.40
2023-04-15T21:58:02.199Z,11.20
2023-04-15T22:03:05.768Z,11.00
2023-04-15T22:08:10.806Z,11.10
2023-04-15T22:13:14.334Z,11.10
2023-04-15T22:18:17.973Z,11.10
2023-04-15T22:23:22.865Z,11.10
2023-04-15T22:28:26.218Z,11.00
